Terminal Aerodrome Forecast
Issued by NWS Green Bay, WI

Home | Current Version | Previous Version | Text Only | Print | Product List | Glossary Off
Versions: 1 2 3 4 5 6 7 8 9 10 11 12 13 14 15 16 17 18 19 20

000
FTUS43 KGRB 242332
TAFGRB
TAF
KGRB 242332Z 2500/2524 11006KT P6SM SCT070
     FM250700 14007KT P6SM SCT020 BKN070
     FM251300 15011G17KT P6SM BKN015 OVC040 PROB30 2517/2521 4SM
      -SHRA BR
     FM252100 18013G20KT 4SM SHRA BKN015 OVC025 PROB30 2521/2524 2SM
      TSRA BR BKN007 OVC015CB=

USA.gov is the U.S. government's official web portal to all federal, state and local government web resources and services.